ラホール国際空港の過去48時間の天気

ラホール国際空港 (Lahore Airport)

現在時刻: 10/4 17:41 PKT (10/4 12:41 UTC) 以下の時間は現地時間です。

過去48時間のMETAR気象情報
時間 風向 風速(m/s) 視程 気温(℃) 湿度(%) 気圧(hPa) 天気現象
4 17:25 北西 4 6000m 35 37 1007
4 16:55 西北西 4 6000m 35 37 1007
4 16:25 西北西 5 6000m 35 34 1007
4 15:55 西北西 4 6000m 35 34 1007
4 15:25 北北西 4 6000m 36 33 1008
4 14:55 北西 5 6000m 36 33 1008
4 14:25 6 6000m 36 33 1008
4 13:55 北西 6 6000m 36 33 1008
4 13:25 西北西 5 6000m 35 34 1009
4 12:55 北西 5 6000m 34 36 1009
4 12:25 北西 5 6000m 34 39 1009
4 11:55 北西 5 6000m 34 36 1009
4 11:25 北北西 4 5000m 33 41 1010 煙霧
4 10:55 北西 4 5000m 32 43 1010 煙霧
4 10:25 北北西 4 5000m 31 46 1010 煙霧
4 09:55 北北西 4 5000m 31 46 1010 煙霧
4 09:25 北北西 4 5000m 30 52 1010
4 08:55 北北西 2 5000m 30 52 1010
4 08:25 西北西 2 4000m 29 55 1010
4 07:55 静穏 0 4000m 28 58 1010
4 07:25 静穏 0 4000m 27 62 1010
4 06:55 南西 2 4000m 26 65 1010
4 06:25 北北西 2 4000m 25 69 1009
4 05:55 西北西 2 3500m 25 69 1009
4 05:25 西北西 2 4000m 25 74 1009
4 04:55 西北西 2 4000m 25 74 1009
4 03:55 西北西 2 4000m 26 70 1009
4 03:25 西 3 4000m 26 70 1009
4 02:55 西 3 4000m 26 70 1009
4 02:25 静穏 0 4000m 27 70 1009
4 01:55 南南西 2 4000m 27 70 1009
4 01:25 静穏 0 4000m 27 70 1009
4 00:55 静穏 0 4000m 28 66 1009
4 00:25 静穏 0 4000m 28 66 1009
3 23:55 静穏 0 4000m 28 66 1009
3 23:25 静穏 0 4000m 29 58 1008
3 22:55 南南東 2 4000m 29 58 1008
3 22:25 南南東 2 4000m 29 62 1008
3 21:55 西南西 2 4000m 29 62 1008
3 21:25 静穏 0 4000m 29 58 1008
3 20:55 西南西 2 4000m 30 59 1008
3 20:25 西 2 4000m 29 55 1007
3 19:55 西南西 2 4000m 30 52 1007
3 19:25 西北西 3 4000m 30 49 1006 煙霧
3 18:55 北西 3 4000m 31 46 1006 煙霧
3 18:25 西北西 3 5000m 31 49 1006 煙霧
3 17:55 西北西 3 5000m 32 43 1006 煙霧
3 17:25 西北西 4 6000m 33 44 1005
3 16:55 西北西 4 6000m 34 41 1005
3 16:25 西北西 5 6000m 35 42 1006
3 15:55 西北西 5 6000m 35 42 1006
3 15:25 西北西 5 6000m 36 39 1006
3 14:55 西北西 6 6000m 36 39 1006
3 14:25 西北西 5 6000m 35 42 1006
3 13:55 西北西 5 6000m 35 42 1006
3 13:25 西 3 5000m 35 44 1007 煙霧
3 12:55 西北西 4 5000m 35 44 1007 煙霧
3 12:25 西南西 4 5000m 34 44 1007 煙霧
3 11:55 西南西 3 4000m 34 44 1008 煙霧
3 11:25 西北西 4 4000m 34 47 1008
3 10:55 南南西 3 4000m 33 49 1008
3 10:25 南南西 3 4000m 32 52 1008
3 09:55 南南西 3 4000m 32 52 1008
3 09:25 静穏 0 3500m 31 55 1008
3 08:55 静穏 0 3500m 30 59 1008
3 08:25 静穏 0 3000m 28 62 1008
3 07:55 静穏 0 3000m 27 66 1007
3 07:25 静穏 0 3000m 25 74 1007
3 06:55 静穏 0 3000m 25 74 1007
3 06:25 静穏 0 3000m 24 74 1006
3 05:55 静穏 0 3000m 24 78 1006
3 05:25 静穏 0 4000m 27 66 1006
3 04:55 静穏 0 4000m 25 74 1006
3 04:25 静穏 0 4000m 26 70 1006
3 03:55 静穏 0 4000m 26 70 1006
3 03:25 静穏 0 4000m 27 66 1006
3 02:55 静穏 0 4000m 27 66 1006
3 02:25 静穏 0 4000m 27 62 1006
3 01:55 静穏 0 4000m 27 62 1006
3 01:25 静穏 0 4000m 27 62 1006
3 00:55 静穏 0 4000m 27 62 1006
3 00:25 静穏 0 4000m 28 58 1006
2 23:55 静穏 0 5000m 28 58 1006
2 23:25 静穏 0 5000m 29 52 1006
2 22:55 静穏 0 5000m 29 52 1006
2 22:25 静穏 0 5000m 30 49 1006
2 21:55 静穏 0 5000m 30 49 1006
2 21:25 静穏 0 5000m 30 49 1006 煙霧
2 20:55 静穏 0 5000m 30 49 1006 煙霧
2 20:25 静穏 0 5000m 31 43 1005 煙霧
2 19:55 西南西 2 6000m 31 43 1005
2 19:25 西 2 6000m 32 38 1005
2 18:55 西北西 2 7000m 32 38 1005
2 18:25 西 2 7000m 33 34 1005
2 17:55 西 2 7000m 34 32 1005
OPLA 041225Z 31007KT 6000 NSC 35/18 Q1007 NOSIG RMK QFE982 A29.75
OPLA 041155Z 29007KT 6000 NSC 35/18 Q1007 NOSIG RMK QFE980 A29.75
OPLA 041125Z 29010KT 6000 NSC 35/17 Q1007 NOSIG RMK QFE982 A29.75
OPLA 041055Z 29008KT 6000 NSC 35/17 Q1007 NOSIG RMK QFE982 A29.75
OPLA 041025Z 33008KT 6000 NSC 36/17 Q1008 NOSIG RMK QFE982 A29.77
OPLA 040955Z 31010KT 6000 NSC 36/17 Q1008 NOSIG RMK QFE982 A29.78
OPLA 040925Z 36011KT 6000 NSC 36/17 Q1008 NOSIG RMK QFE982 A29.78
OPLA 040855Z 31011KT 6000 NSC 36/17 Q1008 NOSIG RMK QFE983 A29.79
OPLA 040825Z 30010KT 6000 NSC 35/17 Q1009 NOSIG RMK QFE983 A29.80
OPLA 040755Z 32010KT 6000 NSC 34/17 Q1009 NOSIG RMK QFE983 A29.80
OPLA 040725Z 32010KT 6000 NSC 34/18 Q1009 NOSIG RMK QFE984 A29.81
OPLA 040655Z 32010KT 6000 NSC 34/17 Q1009 NOSIG RMK QFE984 A29.81
OPLA 040625Z 33008KT 5000 HZ NSC 33/18 Q1010 NOSIG RMK QFE984 A29.82
OPLA 040555Z 32008KT 5000 HZ NSC 32/18 Q1010 NOSIG RMK QFE985 A29.83
OPLA 040525Z 33008KT 5000 HZ NSC 31/18 Q1010 NOSIG RMK QFE985 A29.85
OPLA 040455Z 33008KT 5000 HZ NSC 31/18 Q1010 NOSIG RMK QFE985 A29.85
OPLA 040425Z 33008KT 5000 FU NSC 30/19 Q1010 BECMG 6000 RMK QFE985 A29.83
OPLA 040355Z 33003KT 5000 FU NSC 30/19 Q1010 NOSIG RMK QFE985 A29.83
OPLA 040325Z 30003KT 4000 FU NSC 29/19 Q1010 BECMG 5000 RMK QFE984 A29.83
OPLA 040255Z 00000KT 4000 FU NSC 28/19 Q1010 BECMG 5000 RMK QFE984 A29.83
OPLA 040225Z 00000KT 4000 FU NSC 27/19 Q1010 BECMG 5000 RMK QFE984 A29.83
OPLA 040155Z 23004KT 4000 FU NSC 26/19 Q1010 BECMG 5000 RMK QFE984 A29.83
OPLA 040125Z 33004KT 4000 FU NSC 25/19 Q1009 BECMG 5000 RMK QFE984 A29.82
OPLA 040055Z 29003KT 3500 FU NSC 25/19 Q1009 BECMG 4000 RMK QFE984 A29.82
OPLA 040025Z 30004KT 4000 FU NSC 25/20 Q1009 BECMG 3500 RMK QFE983 A29.81
OPLA 032355Z 30004KT 4000 FU NSC 25/20 Q1009 NOSIG RMK QFE983 A29.81
OPLA 032255Z 30004KT 4000 FU NSC 26/20 Q1009 NOSIG RMK QFE983 A29.80
OPLA 032225Z 27005KT 4000 FU NSC 26/20 Q1009 NOSIG RMK QFE983 A29.80
OPLA 032155Z 26005KT 4000 FU NSC 26/20 Q1009 NOSIG RMK QFE983 A29.80
OPLA 032125Z 00000KT 4000 FU NSC 27/21 Q1009 NOSIG RMK QFE983 A29.80
OPLA 032055Z 20003KT 4000 FU NSC 27/21 Q1009 NOSIG RMK QFE983 A29.80
OPLA 032025Z 00000KT 4000 FU NSC 27/21 Q1009 NOSIG RMK QFE983 A29.80
OPLA 031955Z 00000KT 4000 FU NSC 28/21 Q1009 NOSIG RMK QFE983 A29.80
OPLA 031925Z 00000KT 4000 FU FEW100 28/21 Q1009 NOSIG RMK QFE983 A29.80
OPLA 031855Z 00000KT 4000 FU FEW100 28/21 Q1009 NOSIG RMK QFE983 A29.80
OPLA 031825Z 00000KT 4000 FU FEW100 29/20 Q1008 NOSIG RMK QFE983 A29.79
OPLA 031755Z 15003KT 4000 FU NSC 29/20 Q1008 NOSIG RMK QFE982 A29.78
OPLA 031725Z 15003KT 4000 FU FEW100 29/21 Q1008 NOSIG RMK QFE982 A29.78
OPLA 031655Z 25003KT 4000 FU FEW100 29/21 Q1008 NOSIG RMK QFE982 A29.78
OPLA 031625Z 00000KT 4000 FU NSC 29/20 Q1008 NOSIG RMK QFE982 A29.78
OPLA 031555Z 25004KT 4000 FU NSC 30/21 Q1008 NOSIG RMK QFE982 A29.77
OPLA 031525Z 26003KT 4000 FU NSC 29/19 Q1007 NOSIG RMK QFE982 A29.74
OPLA 031455Z 24003KT 4000 FU NSC 30/19 Q1007 NOSIG RMK QFE981 A29.73
OPLA 031425Z 29005KT 4000 HZ NSC 30/18 Q1006 NOSIG RMK QFE981 A29.72
OPLA 031355Z 31005KT 4000 HZ NSC 31/18 Q1006 NOSIG RMK QFE981 A29.72
OPLA 031325Z 30005KT 5000 HZ NSC 31/19 Q1006 BECMG 4000 RMK QFE981 A29.71
OPLA 031255Z 30005KT 5000 HZ NSC 32/18 Q1006 NOSIG RMK QFE980 A29.71
OPLA 031225Z 30008KT 6000 NSC 33/19 Q1005 BECMG 5000 RMK QFE980 A29.70
OPLA 031155Z 30008KT 6000 NSC 34/19 Q1005 BECMG 5000 RMK QFE980 A29.70
OPLA 031125Z 30010KT 6000 NSC 35/20 Q1006 NOSIG RMK QFE980 A29.71
OPLA 031055Z 30010KT 6000 NSC 35/20 Q1006 NOSIG RMK QFE980 A29.71
OPLA 031025Z 30010KT 6000 NSC 36/20 Q1006 NOSIG RMK QFE981 A29.72
OPLA 030955Z 30011KT 6000 NSC 36/20 Q1006 NOSIG RMK QFE981 A29.72
OPLA 030925Z 30010KT 6000 NSC 35/20 Q1006 TEMPO 33015G30KT RMK QFE981 A29.73
OPLA 030855Z 30010KT 6000 NSC 35/20 Q1006 TEMPO 33015G30KT RMK QFE981 A29.73
OPLA 030825Z 27006KT 5000 HZ NSC 35/21 Q1007 TEMPO 33015G30KT RMK QFE981 A29.74
OPLA 030755Z 30008KT 5000 HZ NSC 35/21 Q1007 TEMPO 33015G30KT RMK QFE982 A29.75
OPLA 030725Z 24008KT 5000 HZ NSC 34/20 Q1007 NOSIG RMK QFE982 A29.76
OPLA 030655Z 24005KT 4000 HZ NSC 34/20 Q1008 BECMG 5000 RMK QFE982 A29.77
OPLA 030625Z 30008KT 4000 FU NSC 34/21 Q1008 NOSIG RMK QFE982 A29.78
OPLA 030555Z 21005KT 4000 FU NSC 33/21 Q1008 NOSIG RMK QFE983 A29.78
OPLA 030525Z 21005KT 4000 FU NSC 32/21 Q1008 NOSIG RMK QFE983 A29.79
OPLA 030455Z 21006KT 4000 FU NSC 32/21 Q1008 NOSIG RMK QFE983 A29.79
OPLA 030425Z 00000KT 3500 FU NSC 31/21 Q1008 BECMG 4000 RMK QFE983 A29.78
OPLA 030355Z 00000KT 3500 FU NSC 30/21 Q1008 BECMG 4000 RMK QFE983 A29.78
OPLA 030325Z 00000KT 3000 FU NSC 28/20 Q1008 BECMG 4000 RMK QFE983 A29.77
OPLA 030255Z 00000KT 3000 FU NSC 27/20 Q1007 BECMG 4000 RMK QFE982 A29.76
OPLA 030225Z 00000KT 3000 FU NSC 25/20 Q1007 BECMG 4000 RMK QFE982 A29.76
OPLA 030155Z 00000KT 3000 FU NSC 25/20 Q1007 BECMG 3500 RMK QFE982 A29.75
OPLA 030125Z 00000KT 3000 FU 24/19 Q1006 BECMG 2500 RMK QFE981 A29.73
OPLA 030055Z 00000KT 3000 FU NSC 24/20 Q1006 BECMG 2000 RMK QFE981 A29.73
OPLA 030025Z 00000KT 4000 FU 27/20 Q1006 BECMG 3000 BR RMK QFE981 A29.72
OPLA 022355Z 00000KT 4000 FU NSC 25/20 Q1006 NOSIG RMK QFE981 A29.72
OPLA 022325Z 00000KT 4000 FU NSC 26/20 Q1006 NOSIG RMK QFE981 A29.71
OPLA 022255Z 00000KT 4000 FU NSC 26/20 Q1006 NOSIG RMK QFE981 A29.71
OPLA 022225Z 00000KT 4000 FU NSC 27/20 Q1006 NOSIG RMK QFE981 A29.72
OPLA 022155Z 00000KT 4000 FU NSC 27/20 Q1006 NOSIG RMK QFE981 A29.72
OPLA 022125Z 00000KT 4000 FU NSC 27/19 Q1006 NOSIG RMK QFE981 A29.72
OPLA 022055Z 00000KT 4000 FU NSC 27/19 Q1006 NOSIG RMK QFE981 A29.72
OPLA 022025Z 00000KT 4000 FU NSC 27/19 Q1006 NOSIG RMK QFE981 A29.72
OPLA 021955Z 00000KT 4000 FU NSC 27/19 Q1006 NOSIG RMK QFE981 A29.72
OPLA 021925Z 00000KT 4000 FU NSC 28/19 Q1006 NOSIG RMK QFE981 A29.72
OPLA 021855Z 00000KT 5000 FU NSC 28/19 Q1006 BECMG 4000 RMK QFE981 A29.72
OPLA 021825Z 00000KT 5000 FU NSC 29/18 Q1006 NOSIG RMK QFE981 A29.72
OPLA 021755Z 00000KT 5000 FU NSC 29/18 Q1006 NOSIG RMK QFE981 A29.72
OPLA 021725Z 00000KT 5000 FU NSC 30/18 Q1006 NOSIG RMK QFE981 A29.71
OPLA 021655Z 00000KT 5000 FU NSC 30/18 Q1006 NOSIG RMK QFE981 A29.71
OPLA 021625Z 00000KT 5000 HZ NSC 30/18 Q1006 NOSIG RMK QFE980 A29.71
OPLA 021555Z 00000KT 5000 HZ NSC 30/18 Q1006 NOSIG RMK QFE980 A29.71
OPLA 021525Z 00000KT 5000 HZ NSC 31/17 Q1005 NOSIG RMK QFE980 A29.70
OPLA 021455Z 24004KT 6000 NSC 31/17 Q1005 BECMG 5000 RMK QFE980 A29.70
OPLA 021425Z 27003KT 6000 NSC 32/16 Q1005 NOSIG RMK QFE980 A29.70
OPLA 021355Z 30004KT 7000 NSC 32/16 Q1005 BECMG 6000 RMK QFE980 A29.69
OPLA 021325Z 27004KT 7000 NSC 33/15 Q1005 NOSIG RMK QFE980 A29.69
OPLA 021255Z 27004KT 7000 NSC 34/15 Q1005 NOSIG RMK QFE978 A29.69